Flugplatz Ober-Mörlen

Für EDFP sind keine METAR/TAF Berichte vorhanden.
Es werden die Flugwettermeldungen vom Flugplatz Frankfurt am Main International in 37 km Entfernung angezeigt.

Bericht für EDDF

vom 31.05. um 03:50 UTC

Wind 9 kt aus 20°

Sichtweite 10 km oder mehr

gute Sicht, keine Wolken < 5000 ft, keine CB, keine Wettererscheinungen (CAVOK)

Temperatur 12.0°C

Taupunkt 5.0°C

Luftfeuchtigkeit 62%

Luftdruck 1021 hPa

keine wesentliche Wetteränderung innerhalb den nächsten 2 Stunden zu erwarten

EDDF 310350Z 02009KT CAVOK 12/05 Q1021 NOSIG

Prognose für EDDF

vom 31.05. um 03:34 UTC

Zwischen 03:00 UTC und 06:00 UTC

Wind 5 kt aus 40°

Sichtweite 10 km oder mehr

keine signifikanten Wettererscheinungen

keine Wolken


Zwischen 03:00 und 06:00 UTC übergehend zu

Wind 10 kt aus 50°

Sichtweite 10 km oder mehr

keine signifikanten Wettererscheinungen

keine Wolken


Zwischen 18:00 und 20:00 UTC übergehend zu

Wind 5 kt aus 50°

Sichtweite 10 km oder mehr

keine signifikanten Wettererscheinungen

keine Wolken

TAF AMD EDDF 310334Z 3103/0106 04005KT CAVOK BECMG 3103/3106 05010KT BECMG 3118/3120 05005KT
Impressum